Time;durP1;ratioP1;P1;durP2;ratioP2;P2;SDS_P1;SDS_P2;PMS_P1;PMS_P2;Temp;Humidity;BMP_temperature;BMP_pressure;BME280_temperature;BME280_humidity;BME280_pressure;Samples;Min_cycle;Max_cycle;Signal;HPM_P1;HPM_P2
2023/12/24 00:01:18;;;;;;;2.10;1.90;;;7.70;99.90;;;-141.84;100.00;119224.81;5050251;28;20225;-60
2023/12/24 00:03:47;;;;;;;2.67;1.80;;;7.80;99.90;;;-141.84;100.00;119224.81;5050463;28;20241;-61
2023/12/24 00:06:15;;;;;;;1.70;1.50;;;7.80;99.90;;;-141.84;100.00;119224.81;5045796;28;20225;-61
2023/12/24 00:08:43;;;;;;;3.77;2.10;;;7.80;99.90;;;-141.84;100.00;119224.81;5049965;28;20189;-61
2023/12/24 00:11:12;;;;;;;2.30;2.10;;;7.80;99.90;;;-141.84;100.00;119224.81;5050447;28;20287;-61
2023/12/24 00:13:40;;;;;;;3.17;2.10;;;7.90;99.90;;;-141.84;100.00;119224.81;5050136;28;20225;-61
2023/12/24 00:16:08;;;;;;;4.20;1.90;;;7.80;99.90;;;-141.84;100.00;119224.81;5041897;28;20291;-61
2023/12/24 00:18:38;;;;;;;3.83;1.80;;;7.80;99.90;;;-141.84;100.00;119224.81;5049940;28;20271;-61
2023/12/24 00:21:06;;;;;;;3.00;2.40;;;7.80;99.90;;;-141.84;100.00;119224.81;5050134;28;20286;-61
2023/12/24 00:23:34;;;;;;;2.10;1.90;;;7.80;99.90;;;-141.84;100.00;119224.81;5050062;28;20228;-60
2023/12/24 00:26:03;;;;;;;2.50;2.30;;;7.80;99.90;;;-141.84;100.00;119224.81;5050392;28;20575;-61
2023/12/24 00:28:31;;;;;;;2.13;1.90;;;7.80;99.90;;;-141.84;100.00;119224.81;5049830;28;20561;-61
2023/12/24 00:30:59;;;;;;;2.27;2.07;;;7.90;99.90;;;-141.84;100.00;119224.81;5049952;28;20217;-61
2023/12/24 00:33:27;;;;;;;2.73;2.03;;;7.80;99.90;;;-141.84;100.00;119224.81;5049530;28;20243;-61
2023/12/24 00:35:57;;;;;;;2.67;2.47;;;7.80;99.90;;;-141.84;100.00;119224.81;5049708;28;20676;-61
2023/12/24 00:38:25;;;;;;;2.97;2.30;;;7.80;99.90;;;-141.84;100.00;119224.81;5050374;28;20198;-61
2023/12/24 00:40:54;;;;;;;2.27;2.07;;;7.80;99.90;;;-141.84;100.00;119224.81;5049343;28;20228;-61
2023/12/24 00:43:23;;;;;;;2.50;2.00;;;7.90;99.90;;;-141.84;100.00;119224.81;5049207;28;20221;-61
2023/12/24 00:45:52;;;;;;;2.10;1.90;;;7.90;99.90;;;-141.84;100.00;119224.81;5049262;28;20267;-61
2023/12/24 00:48:20;;;;;;;2.87;2.17;;;7.90;99.90;;;-141.84;100.00;119224.81;5052447;28;20709;-61
2023/12/24 00:50:48;;;;;;;2.23;2.03;;;7.90;99.90;;;-141.84;100.00;119224.81;5041894;28;20427;-61
2023/12/24 00:53:18;;;;;;;2.27;2.03;;;7.90;99.90;;;-141.84;100.00;119224.81;5050377;28;20240;-61
2023/12/24 00:55:46;;;;;;;2.23;1.90;;;7.90;99.90;;;-141.84;100.00;119224.81;5049464;28;20225;-61
2023/12/24 00:58:17;;;;;;;2.20;2.00;;;7.90;99.90;;;-141.84;100.00;119224.81;5049908;28;20886;-61
2023/12/24 01:00:46;;;;;;;2.27;2.07;;;8.00;99.90;;;-141.84;100.00;119224.81;5049952;28;20225;-61
2023/12/24 01:03:15;;;;;;;2.30;2.10;;;8.00;99.90;;;-141.84;100.00;119224.81;5048607;28;20232;-61
2023/12/24 01:05:44;;;;;;;2.40;2.00;;;7.90;99.90;;;-141.84;100.00;119224.81;5049983;28;20795;-61
2023/12/24 01:08:12;;;;;;;2.47;1.73;;;7.90;99.90;;;-141.84;100.00;119224.81;5050437;28;20255;-61
2023/12/24 01:10:42;;;;;;;2.00;1.80;;;7.90;99.90;;;-141.84;100.00;119224.81;5048854;28;20445;-61
2023/12/24 01:13:10;;;;;;;2.07;1.80;;;7.90;99.90;;;-141.84;100.00;119224.81;5049196;28;20233;-61
2023/12/24 01:15:38;;;;;;;1.97;1.87;;;8.00;99.90;;;-141.84;100.00;119224.81;5049186;28;20294;-62
2023/12/24 01:18:06;;;;;;;2.67;2.00;;;8.00;99.90;;;-141.84;100.00;119224.81;5060515;28;20252;-61
2023/12/24 01:20:35;;;;;;;2.87;2.00;;;8.00;99.90;;;-141.84;100.00;119224.81;5053465;28;20300;-61
2023/12/24 01:23:03;;;;;;;2.20;2.00;;;7.90;99.90;;;-141.84;100.00;119224.81;5053694;28;20711;-62
2023/12/24 01:25:31;;;;;;;3.10;1.73;;;7.90;99.90;;;-141.84;100.00;119224.81;5044187;28;20228;-61
2023/12/24 01:28:01;;;;;;;2.03;1.83;;;7.90;99.90;;;-141.84;100.00;119224.81;5053325;28;20285;-62
2023/12/24 01:30:29;;;;;;;2.60;1.87;;;7.90;99.90;;;-141.84;100.00;119224.81;5053727;28;20692;-62
2023/12/24 01:32:58;;;;;;;1.87;1.77;;;7.90;99.90;;;-141.84;100.00;119224.81;5053721;28;20698;-61
2023/12/24 01:35:27;;;;;;;2.47;2.27;;;7.90;99.90;;;-141.84;100.00;119224.81;5054291;28;20324;-62
2023/12/24 01:37:55;;;;;;;1.60;1.50;;;7.90;99.90;;;-141.84;100.00;119224.81;5054625;28;20217;-61
2023/12/24 01:40:23;;;;;;;2.60;1.53;;;8.00;99.90;;;-141.84;100.00;119224.81;5053294;28;20222;-61
2023/12/24 01:42:51;;;;;;;2.17;1.97;;;8.00;99.90;;;-141.84;100.00;119224.81;5053834;28;20798;-63
2023/12/24 01:45:21;;;;;;;2.50;2.30;;;8.00;99.90;;;-141.84;100.00;119224.81;5053805;28;20239;-61
2023/12/24 01:47:50;;;;;;;2.97;1.77;;;7.90;99.90;;;-141.84;100.00;119224.81;5052817;28;20292;-62
2023/12/24 01:50:21;;;;;;;2.00;1.80;;;7.90;99.90;;;-141.84;100.00;119224.81;5046921;28;20268;-62
2023/12/24 01:52:50;;;;;;;2.50;2.00;;;7.90;99.90;;;-141.84;100.00;119224.81;5053139;28;20739;-62
2023/12/24 01:55:20;;;;;;;2.07;1.97;;;8.00;99.90;;;-141.84;100.00;119224.81;5051311;28;20232;-62
2023/12/24 01:57:50;;;;;;;2.50;2.10;;;8.00;99.90;;;-141.84;100.00;119224.81;5048449;28;20280;-62
2023/12/24 02:00:19;;;;;;;2.37;2.17;;;8.00;99.90;;;-141.84;100.00;119224.81;5045093;28;20275;-61
2023/12/24 02:02:50;;;;;;;2.70;2.23;;;8.00;99.90;;;-141.84;100.00;119224.81;5053132;28;20205;-61
2023/12/24 02:05:19;;;;;;;2.40;2.20;;;8.00;99.90;;;-141.84;100.00;119224.81;5053492;28;20198;-61
2023/12/24 02:07:50;;;;;;;2.27;2.07;;;7.90;99.90;;;-141.84;100.00;119224.81;5052742;28;20301;-61
2023/12/24 02:10:19;;;;;;;2.40;2.20;;;8.00;99.90;;;-141.84;100.00;119224.81;5052228;28;20776;-62
2023/12/24 02:12:47;;;;;;;2.60;2.40;;;8.00;99.90;;;-141.84;100.00;119224.81;5052768;28;20319;-62
2023/12/24 02:15:16;;;;;;;1.90;1.80;;;8.00;99.90;;;-141.84;100.00;119224.81;5052760;28;20689;-61
2023/12/24 02:17:45;;;;;;;2.10;1.90;;;8.00;99.90;;;-141.84;100.00;119224.81;5059213;28;20708;-61
2023/12/24 02:20:18;;;;;;;2.20;2.00;;;7.90;99.90;;;-141.84;100.00;119224.81;5044617;28;20897;-62
2023/12/24 02:22:48;;;;;;;2.27;1.90;;;8.00;99.90;;;-141.84;100.00;119224.81;5052501;28;20213;-61
2023/12/24 02:25:16;;;;;;;1.70;1.60;;;8.00;99.90;;;-141.84;100.00;119224.81;5051974;28;20229;-62
2023/12/24 02:27:52;;;;;;;1.93;1.73;;;8.00;99.90;;;-141.84;100.00;119224.81;5052376;28;20271;-61
2023/12/24 02:30:27;;;;;;;1.83;1.63;;;8.00;99.90;;;-141.84;100.00;119224.81;5052727;28;20225;-62
2023/12/24 02:32:58;;;;;;;1.77;1.67;;;7.90;99.90;;;-141.84;100.00;119224.81;5044659;28;20823;-61
2023/12/24 02:35:33;;;;;;;1.87;1.70;;;7.90;99.90;;;-141.84;100.00;119224.81;5052798;28;20229;-62
2023/12/24 02:38:04;;;;;;;2.03;1.83;;;7.90;99.90;;;-141.84;100.00;119224.81;5052402;28;20244;-61
2023/12/24 02:40:32;;;;;;;2.93;1.60;;;7.90;99.90;;;-141.84;100.00;119224.81;5051686;28;20213;-62
2023/12/24 02:43:00;;;;;;;1.90;1.80;;;7.90;99.90;;;-141.84;100.00;119224.81;5043745;28;20234;-61
2023/12/24 02:45:28;;;;;;;2.10;1.33;;;7.90;99.90;;;-141.84;100.00;119224.81;5052235;28;20257;-61
2023/12/24 02:47:56;;;;;;;1.80;1.70;;;7.90;99.90;;;-141.84;100.00;119224.81;5054013;28;20315;-62
2023/12/24 02:50:25;;;;;;;1.60;1.50;;;7.90;99.90;;;-141.84;100.00;119224.81;5045459;28;20195;-62
2023/12/24 02:52:53;;;;;;;1.70;1.47;;;7.90;99.90;;;-141.84;100.00;119224.81;5051898;28;20221;-62
2023/12/24 02:55:23;;;;;;;4.90;2.00;;;7.90;99.90;;;-141.84;100.00;119224.81;5051178;28;20228;-61
2023/12/24 02:57:51;;;;;;;1.80;1.40;;;7.90;99.90;;;-141.84;100.00;119224.81;5046086;28;20226;-61
2023/12/24 03:00:20;;;;;;;1.60;1.50;;;8.00;99.90;;;-141.84;100.00;119224.81;5051994;28;20249;-61
2023/12/24 03:02:49;;;;;;;4.30;1.67;;;8.00;99.90;;;-141.84;100.00;119224.81;5051813;28;20637;-61
2023/12/24 03:05:18;;;;;;;2.07;1.70;;;8.00;99.90;;;-141.84;100.00;119224.81;5052135;28;20230;-61
2023/12/24 03:07:46;;;;;;;2.67;1.30;;;8.00;99.90;;;-141.84;100.00;119224.81;5051491;28;20228;-61
2023/12/24 03:10:14;;;;;;;2.20;1.50;;;8.00;99.90;;;-141.84;100.00;119224.81;5051360;28;20308;-62
2023/12/24 03:12:44;;;;;;;1.40;1.30;;;8.00;99.90;;;-141.84;100.00;119224.81;5050975;28;20275;-61
2023/12/24 03:15:12;;;;;;;3.40;1.73;;;8.00;99.90;;;-141.84;100.00;119224.81;5051169;28;20712;-61
2023/12/24 03:17:40;;;;;;;1.40;1.30;;;7.90;99.90;;;-141.84;100.00;119224.81;5056664;28;20676;-61
2023/12/24 03:20:10;;;;;;;2.10;1.40;;;7.90;99.90;;;-141.84;100.00;119224.81;5051053;28;20237;-62
2023/12/24 03:22:38;;;;;;;1.60;1.50;;;7.90;99.90;;;-141.84;100.00;119224.81;5050417;28;20221;-62
2023/12/24 03:25:07;;;;;;;3.03;1.70;;;7.90;99.90;;;-141.84;100.00;119224.81;5050233;28;20271;-62
2023/12/24 03:27:36;;;;;;;1.70;1.57;;;7.90;99.90;;;-141.84;100.00;119224.81;5050673;28;20266;-62
2023/12/24 03:30:07;;;;;;;2.17;1.40;;;7.90;99.90;;;-141.84;100.00;119224.81;5050799;28;20245;-62
2023/12/24 03:32:36;;;;;;;1.57;1.47;;;7.90;99.90;;;-141.84;100.00;119224.81;5050393;28;20198;-62
2023/12/24 03:35:05;;;;;;;2.73;1.60;;;7.90;99.90;;;-141.84;100.00;119224.81;5050818;28;20225;-62
2023/12/24 03:37:34;;;;;;;1.73;1.37;;;7.90;99.90;;;-141.84;100.00;119224.81;5049984;28;20825;-62
2023/12/24 03:40:02;;;;;;;1.70;1.60;;;7.90;99.90;;;-141.84;100.00;119224.81;5049959;28;20300;-63
2023/12/24 03:42:30;;;;;;;1.50;1.30;;;8.00;99.90;;;-141.84;100.00;119224.81;5050774;28;20225;-62
2023/12/24 03:44:59;;;;;;;2.07;1.50;;;8.00;99.90;;;-141.84;100.00;119224.81;5050125;28;20225;-62
2023/12/24 03:47:28;;;;;;;5.03;1.60;;;8.00;99.90;;;-141.84;100.00;119224.81;5048570;28;20213;-60
2023/12/24 03:49:56;;;;;;;2.17;1.77;;;8.00;99.90;;;-141.84;100.00;119224.81;5046272;28;20777;-61
2023/12/24 03:52:25;;;;;;;1.67;1.57;;;8.00;99.90;;;-141.84;100.00;119224.81;5048732;28;20240;-61
2023/12/24 03:54:53;;;;;;;3.23;1.60;;;8.00;99.90;;;-141.84;100.00;119224.81;5049917;28;20233;-60
2023/12/24 03:57:21;;;;;;;1.70;1.60;;;8.00;99.90;;;-141.84;100.00;119224.81;5050326;28;20221;-61
2023/12/24 03:59:49;;;;;;;1.77;1.50;;;8.10;99.90;;;-141.84;100.00;119224.81;5050206;28;20197;-61
2023/12/24 04:02:18;;;;;;;3.57;1.57;;;8.00;99.90;;;-141.84;100.00;119224.81;5050436;28;20703;-61
2023/12/24 04:04:48;;;;;;;1.60;1.33;;;8.00;99.90;;;-141.84;100.00;119224.81;5050378;28;20772;-61
2023/12/24 04:07:16;;;;;;;2.03;1.50;;;8.00;99.90;;;-141.84;100.00;119224.81;5050102;28;20307;-61
2023/12/24 04:09:45;;;;;;;1.57;1.30;;;8.00;99.90;;;-141.84;100.00;119224.81;5049954;28;20225;-61
2023/12/24 04:12:13;;;;;;;2.37;1.50;;;8.00;99.90;;;-141.84;100.00;119224.81;5050334;28;20291;-64
2023/12/24 04:14:41;;;;;;;1.97;1.50;;;8.00;99.90;;;-141.84;100.00;119224.81;5050446;28;20201;-61
2023/12/24 04:17:10;;;;;;;3.60;1.50;;;8.00;99.90;;;-141.84;100.00;119224.81;5050884;28;20212;-61
2023/12/24 04:19:38;;;;;;;2.73;1.70;;;7.90;99.90;;;-141.84;100.00;119224.81;5050103;28;20228;-61
2023/12/24 04:22:07;;;;;;;3.17;1.60;;;7.90;99.90;;;-141.84;100.00;119224.81;5050047;28;20249;-61
2023/12/24 04:24:35;;;;;;;2.30;1.47;;;8.00;99.90;;;-141.84;100.00;119224.81;5049925;28;20300;-62
2023/12/24 04:27:04;;;;;;;1.73;1.40;;;8.00;99.90;;;-141.84;100.00;119224.81;5050180;28;20225;-61
2023/12/24 04:29:33;;;;;;;3.00;1.57;;;8.00;99.90;;;-141.84;100.00;119224.81;5049089;28;20251;-60
2023/12/24 04:32:01;;;;;;;2.43;1.47;;;8.00;99.90;;;-141.84;100.00;119224.81;5049533;28;20221;-61
2023/12/24 04:34:29;;;;;;;3.40;1.77;;;7.90;99.90;;;-141.84;100.00;119224.81;5049563;28;20700;-61
2023/12/24 04:36:57;;;;;;;3.20;1.70;;;7.90;99.90;;;-141.84;100.00;119224.81;5042371;28;20233;-61
2023/12/24 04:39:27;;;;;;;1.70;1.53;;;7.90;99.90;;;-141.84;100.00;119224.81;5049665;28;20320;-61
2023/12/24 04:41:55;;;;;;;2.10;1.57;;;7.90;99.90;;;-141.84;100.00;119224.81;5050019;28;20299;-62
2023/12/24 04:44:23;;;;;;;4.23;1.77;;;7.80;99.90;;;-141.84;100.00;119224.81;5050197;28;20267;-62
2023/12/24 04:46:52;;;;;;;3.00;1.67;;;7.80;99.90;;;-141.84;100.00;119224.81;5049928;28;20224;-62
2023/12/24 04:49:20;;;;;;;2.33;1.70;;;7.90;99.90;;;-141.84;100.00;119224.81;5049675;28;20256;-62
2023/12/24 04:51:48;;;;;;;2.10;1.70;;;7.80;99.90;;;-141.84;100.00;119224.81;5047986;28;20214;-62
2023/12/24 04:54:16;;;;;;;2.37;1.70;;;7.80;99.90;;;-141.84;100.00;119224.81;5049667;28;20229;-62
2023/12/24 04:56:46;;;;;;;1.60;1.50;;;7.80;99.90;;;-141.84;100.00;119224.81;5049559;28;20202;-62
2023/12/24 04:59:14;;;;;;;1.70;1.33;;;7.80;99.90;;;-141.84;100.00;119224.81;5050193;28;20280;-62
2023/12/24 05:01:43;;;;;;;4.07;1.60;;;7.80;99.90;;;-141.84;100.00;119224.81;5049519;28;20221;-62
2023/12/24 05:04:11;;;;;;;1.53;1.43;;;7.90;99.90;;;-141.84;100.00;119224.81;5049232;28;20804;-62
2023/12/24 05:06:39;;;;;;;1.63;1.53;;;8.00;99.90;;;-141.84;100.00;119224.81;5049487;28;20639;-61
2023/12/24 05:09:07;;;;;;;2.80;1.70;;;7.90;99.90;;;-141.84;100.00;119224.81;5049427;28;20284;-62
2023/12/24 05:11:36;;;;;;;1.57;1.20;;;7.90;99.90;;;-141.84;100.00;119224.81;5049587;28;20284;-61
2023/12/24 05:14:05;;;;;;;3.10;1.37;;;8.00;99.90;;;-141.84;100.00;119224.81;5050006;28;20193;-61
2023/12/24 05:16:33;;;;;;;1.40;1.27;;;8.10;99.90;;;-141.84;100.00;119224.81;5049465;28;20549;-61
2023/12/24 05:19:02;;;;;;;1.33;1.20;;;8.00;99.90;;;-141.84;100.00;119224.81;5041344;28;20315;-62
2023/12/24 05:21:30;;;;;;;1.30;1.20;;;8.00;99.90;;;-141.84;100.00;119224.81;5049333;28;20232;-61
2023/12/24 05:23:58;;;;;;;3.60;1.27;;;8.00;99.90;;;-141.84;100.00;119224.81;5049129;28;20279;-62
2023/12/24 05:26:27;;;;;;;1.57;1.47;;;8.00;99.90;;;-141.84;100.00;119224.81;5049799;28;20719;-62
2023/12/24 05:28:55;;;;;;;2.77;1.37;;;8.00;99.90;;;-141.84;100.00;119224.81;5049562;28;20209;-61
2023/12/24 05:31:24;;;;;;;3.00;1.50;;;8.00;99.90;;;-141.84;100.00;119224.81;5049448;28;20225;-62
2023/12/24 05:33:53;;;;;;;1.87;1.30;;;7.90;99.90;;;-141.84;100.00;119224.81;5049173;28;20649;-62
2023/12/24 05:36:22;;;;;;;3.73;1.40;;;7.90;99.90;;;-141.84;100.00;119224.81;5049516;28;20278;-61
2023/12/24 05:38:50;;;;;;;1.67;1.23;;;7.90;99.90;;;-141.84;100.00;119224.81;5049385;28;20308;-62
2023/12/24 05:41:18;;;;;;;1.53;1.43;;;7.90;99.90;;;-141.84;100.00;119224.81;5049685;28;20228;-61
2023/12/24 05:43:47;;;;;;;3.67;1.30;;;7.90;99.90;;;-141.84;100.00;119224.81;5049025;28;20229;-61
2023/12/24 05:46:15;;;;;;;1.17;1.07;;;7.80;99.90;;;-141.84;100.00;119224.81;5049081;28;20271;-54
2023/12/24 05:48:44;;;;;;;1.90;1.00;;;8.00;99.90;;;-141.84;100.00;119224.81;5049625;28;20316;-52
2023/12/24 05:51:13;;;;;;;1.90;1.17;;;8.00;99.90;;;-141.84;100.00;119224.81;5047642;28;20282;-53
2023/12/24 05:53:41;;;;;;;1.17;1.07;;;8.00;99.90;;;-141.84;100.00;119224.81;5049387;28;20640;-51
2023/12/24 05:56:10;;;;;;;1.00;0.90;;;8.10;99.90;;;-141.84;100.00;119224.81;5049549;28;20574;-55
2023/12/24 05:58:39;;;;;;;1.47;0.80;;;8.10;99.90;;;-141.84;100.00;119224.81;5048882;28;20223;-55
2023/12/24 06:01:08;;;;;;;0.80;0.80;;;8.20;99.90;;;-141.84;100.00;119224.81;5041293;28;20583;-54
2023/12/24 06:03:36;;;;;;;1.53;0.70;;;8.30;99.90;;;-141.84;100.00;119224.81;5051228;28;20232;-54
2023/12/24 06:06:06;;;;;;;0.80;0.77;;;8.30;99.90;;;-141.84;100.00;119224.81;5051769;28;20232;-56
2023/12/24 06:08:34;;;;;;;0.97;0.70;;;8.30;99.90;;;-141.84;100.00;119224.81;5053030;28;20193;-57
2023/12/24 06:11:02;;;;;;;0.93;0.80;;;8.30;99.90;;;-141.84;100.00;119224.81;5052903;28;20243;-56
2023/12/24 06:13:31;;;;;;;0.60;0.60;;;8.40;99.90;;;-141.84;100.00;118689.38;5051599;28;20232;-56
2023/12/24 06:15:59;;;;;;;0.90;0.60;;;8.50;99.90;;;-141.84;100.00;118689.38;5052244;28;20686;-57
2023/12/24 06:18:27;;;;;;;0.87;0.73;;;8.50;99.90;;;-141.84;100.00;116290.06;5052713;28;20235;-60
2023/12/24 06:20:55;;;;;;;0.50;0.50;;;8.50;99.90;;;-141.84;100.00;115490.59;5052327;28;20224;-56
2023/12/24 06:23:25;;;;;;;0.63;0.60;;;8.60;99.90;;;-141.84;100.00;113625.81;5052898;28;20711;-55
2023/12/24 06:25:53;;;;;;;0.60;0.60;;;8.70;99.90;;;-141.84;100.00;112294.34;5052352;28;20228;-56
2023/12/24 06:28:21;;;;;;;0.47;0.47;;;8.60;99.90;;;-141.84;100.00;111761.88;5052259;28;20772;-57
2023/12/24 06:30:50;;;;;;;0.87;0.57;;;8.70;99.90;;;-141.84;100.00;111229.50;5052515;28;20300;-56
2023/12/24 06:33:18;;;;;;;1.03;0.50;;;8.70;99.90;;;-141.84;100.00;112560.63;5052337;28;20234;-53
2023/12/24 06:35:46;;;;;;;0.87;0.53;;;8.70;99.90;;;-141.84;100.00;111495.69;5044077;28;20224;-58
2023/12/24 06:38:15;;;;;;;1.03;0.93;;;8.70;99.90;;;-141.84;100.00;110431.03;5053016;28;20259;-55
2023/12/24 06:40:45;;;;;;;0.43;0.43;;;8.70;99.90;;;-141.84;100.00;110431.03;5051764;28;20224;-57
2023/12/24 06:43:13;;;;;;;0.83;0.50;;;8.70;99.90;;;-141.84;100.00;107504.66;5051908;28;20249;-56
2023/12/24 06:45:41;;;;;;;0.47;0.43;;;8.70;99.90;;;-141.84;100.00;109100.59;5052194;28;20619;-59
2023/12/24 06:48:10;;;;;;;0.30;0.30;;;8.70;99.90;;;-141.84;100.00;107770.63;5051965;28;20309;-57
2023/12/24 06:50:38;;;;;;;1.17;0.50;;;8.70;99.90;;;-141.84;100.00;105111.94;5046640;28;20204;-56
2023/12/24 06:53:07;;;;;;;1.23;0.60;;;8.80;99.90;;;-141.84;100.00;105643.53;5052749;28;20269;-56
2023/12/24 06:55:35;;;;;;;0.50;0.50;;;8.80;99.90;;;-141.84;100.00;105111.94;5051724;28;20252;-56
2023/12/24 06:58:06;;;;;;;0.70;0.70;;;8.80;99.90;;;-141.84;100.00;107504.66;5051982;28;20213;-56
2023/12/24 07:00:35;;;;;;;1.03;0.60;;;8.70;99.90;;;-141.84;100.00;106706.94;5051913;28;20723;-57
2023/12/24 07:03:03;;;;;;;0.37;0.37;;;8.80;99.90;;;-141.84;100.00;98472.84;5051856;28;20225;-57
2023/12/24 07:05:35;;;;;;;0.40;0.40;;;8.80;99.90;;;-141.84;100.00;97942.19;5051684;28;20193;-56
2023/12/24 07:08:07;;;;;;;0.40;0.40;;;8.90;99.90;;;-141.84;100.00;95024.81;5052658;28;20224;-56
2023/12/24 07:10:35;;;;;;;0.30;0.30;;;9.00;99.90;;;-141.84;99.31;89461.13;5051558;28;20708;-55
2023/12/24 07:13:05;;;;;;;0.97;0.47;;;9.10;99.90;;;-141.84;99.19;88931.63;5051606;28;20217;-57
2023/12/24 07:15:39;;;;;;;0.50;0.50;;;9.10;99.90;;;-141.84;100.00;91314.81;5050650;28;20236;-56
2023/12/24 07:18:07;;;;;;;0.60;0.60;;;9.10;99.90;;;-141.84;100.00;92374.47;5044228;28;20233;-56
2023/12/24 07:20:36;;;;;;;0.50;0.40;;;9.00;99.90;;;-141.84;99.14;88931.63;5051282;28;20562;-60
2023/12/24 07:23:05;;;;;;;0.73;0.40;;;9.10;99.90;;;-141.84;99.04;87872.91;5049806;28;20221;-60
2023/12/24 07:25:33;;;;;;;0.40;0.40;;;9.10;99.90;;;-141.84;97.45;83640.72;5050642;28;20689;-60
2023/12/24 07:28:01;;;;;;;0.50;0.40;;;9.10;99.90;;;-141.84;97.48;83376.34;5057618;28;20216;-60
2023/12/24 07:30:31;;;;;;;0.60;0.40;;;9.20;99.90;;;-141.84;98.10;85756.25;5047287;28;20224;-60
2023/12/24 07:32:59;;;;;;;0.50;0.50;;;9.20;99.90;;;-141.84;97.62;84169.50;5050267;28;20225;-60
2023/12/24 07:35:28;;;;;;;0.30;0.30;;;9.20;99.90;;;-141.84;96.99;82583.34;5049952;28;20229;-60
2023/12/24 07:37:56;;;;;;;0.20;0.20;;;9.20;99.90;;;-141.84;94.79;75717.34;5050169;28;20240;-60
2023/12/24 07:40:24;;;;;;;0.50;0.50;;;9.30;99.90;;;-141.84;95.87;77828.72;5051205;28;20221;-59
2023/12/24 07:42:52;;;;;;;0.40;0.40;;;9.30;99.90;;;-141.84;96.15;79412.97;5046667;28;20316;-60
2023/12/24 07:45:22;;;;;;;0.40;0.40;;;9.30;99.90;;;-141.84;96.17;78884.81;5051178;28;20692;-60
2023/12/24 07:47:52;;;;;;;0.40;0.40;;;9.30;99.90;;;-141.84;95.49;77036.81;5050839;28;20232;-60
2023/12/24 07:50:21;;;;;;;0.67;0.50;;;9.30;99.90;;;-141.84;94.05;73343.38;5046766;28;20198;-60
2023/12/24 07:52:49;;;;;;;0.47;0.47;;;9.30;99.90;;;-141.84;93.48;69389.94;5050950;28;20257;-61
2023/12/24 07:55:18;;;;;;;2.70;0.50;;;9.40;99.90;;;-141.84;95.75;77300.78;5051138;28;20307;-61
2023/12/24 07:57:46;;;;;;;0.67;0.63;;;9.40;99.90;;;-141.84;93.94;71497.94;5043016;28;20295;-60
2023/12/24 08:00:15;;;;;;;0.70;0.70;;;9.40;99.90;;;-141.84;93.81;70180.31;5050915;28;20286;-61
2023/12/24 08:02:46;;;;;;;0.77;0.50;;;9.40;99.90;;;-141.84;91.96;63335.53;5050253;28;20205;-60
2023/12/24 08:05:16;;;;;;;0.43;0.40;;;9.50;99.90;;;-141.84;92.18;63598.59;5056471;28;20684;-60
2023/12/24 08:07:44;;;;;;;1.80;0.57;;;9.50;99.90;;;-141.84;92.87;66493.19;5050692;28;20229;-59
2023/12/24 08:10:13;;;;;;;0.90;0.60;;;9.60;99.90;;;-141.84;93.07;67283.00;5050584;28;20296;-60
2023/12/24 08:12:41;;;;;;;1.17;0.57;;;9.50;99.90;;;-141.84;95.44;76245.09;5050668;28;20789;-55
2023/12/24 08:15:12;;;;;;;0.50;0.47;;;9.50;99.90;;;-141.84;96.64;80205.34;5050296;28;20583;-56
2023/12/24 08:17:41;;;;;;;0.63;0.63;;;9.50;99.90;;;-141.84;95.72;77828.72;5049875;28;20669;-57
2023/12/24 08:20:11;;;;;;;0.50;0.50;;;9.50;99.90;;;-141.84;94.31;73343.38;5045161;28;20233;-52
2023/12/24 08:22:41;;;;;;;0.57;0.53;;;9.50;99.90;;;-141.84;92.91;67809.63;5050147;28;20225;-55
2023/12/24 08:25:09;;;;;;;0.50;0.47;;;9.60;99.90;;;-141.84;92.63;65966.75;5050455;28;20311;-55
2023/12/24 08:27:38;;;;;;;0.83;0.63;;;9.60;99.90;;;-141.84;92.69;67283.00;5050522;28;20213;-55
2023/12/24 08:30:08;;;;;;;0.50;0.50;;;9.60;99.90;;;-141.84;91.89;62020.59;5049975;28;20229;-57
2023/12/24 08:32:36;;;;;;;0.43;0.43;;;9.60;99.90;;;-141.84;90.20;54664.88;5045995;28;20190;-51
2023/12/24 08:35:06;;;;;;;0.77;0.40;;;9.60;99.90;;;-141.84;89.79;51778.88;5051741;28;20228;-54
2023/12/24 08:37:35;;;;;;;0.60;0.53;;;9.70;99.90;;;-141.84;90.05;52828.09;5050031;28;20309;-54
2023/12/24 08:40:07;;;;;;;0.70;0.60;;;9.70;99.90;;;-141.84;89.74;51516.59;5050448;28;20724;-54
2023/12/24 08:42:35;;;;;;;1.17;0.60;;;9.70;99.90;;;-141.84;90.78;56502.53;5050425;28;20282;-54
2023/12/24 08:45:05;;;;;;;0.50;0.50;;;9.70;99.90;;;-141.84;89.84;52565.75;5050338;28;20248;-55
2023/12/24 08:47:33;;;;;;;0.87;0.40;;;9.70;99.90;;;-141.84;89.91;52565.75;5049928;28;20253;-54
2023/12/24 08:50:01;;;;;;;0.60;0.60;;;9.70;99.90;;;-141.84;92.20;63861.66;5046484;28;20194;-55
2023/12/24 08:52:30;;;;;;;0.50;0.50;;;9.60;99.90;;;-141.84;91.33;60180.38;5041659;28;20584;-53
2023/12/24 08:54:58;;;;;;;0.97;0.60;;;9.80;99.90;;;-141.84;91.06;60180.38;5050026;28;20226;-55
2023/12/24 08:57:27;;;;;;;1.23;0.50;;;9.80;99.90;;;-141.84;90.22;55189.84;5049672;28;20248;-54
2023/12/24 08:59:56;;;;;;;1.13;0.63;;;9.90;99.90;;;-141.84;90.18;54664.88;5049939;28;20328;-56
2023/12/24 09:02:24;;;;;;;0.60;0.60;;;9.90;99.90;;;-141.84;90.12;54402.44;5050092;28;20197;-54
2023/12/24 09:04:52;;;;;;;0.73;0.60;;;9.90;99.90;;;-141.84;88.81;48370.84;5054469;28;20228;-53
2023/12/24 09:07:20;;;;;;;0.70;0.70;;;9.90;99.90;;;-141.84;87.37;39214.06;5049826;28;20225;-55
2023/12/24 09:09:51;;;;;;;0.73;0.60;;;10.00;99.90;;;-141.84;87.02;35378.13;5049889;28;20725;-56
2023/12/24 09:12:19;;;;;;;0.70;0.60;;;10.00;99.90;;;-141.84;87.42;36968.00;5049912;28;20233;-60
2023/12/24 09:14:49;;;;;;;0.50;0.50;;;10.00;99.90;;;-141.84;88.01;41649.41;5050020;28;20236;-61
2023/12/24 09:17:17;;;;;;;1.63;0.50;;;10.00;99.90;;;-141.84;85.98;30296.59;5049928;28;20197;-59
2023/12/24 09:19:46;;;;;;;0.83;0.60;;;10.10;99.90;;;-141.84;86.34;31800.78;5048432;28;20225;-59
2023/12/24 09:22:14;;;;;;;0.40;0.40;;;10.10;99.90;;;-141.84;85.40;29033.34;5044215;28;20333;-60
2023/12/24 09:24:43;;;;;;;0.40;0.40;;;10.10;99.90;;;-141.84;85.28;27984.34;5047130;28;20221;-60
2023/12/24 09:27:11;;;;;;;0.50;0.50;;;10.20;99.90;;;-141.84;84.82;25669.41;5048937;28;20712;-60
2023/12/24 09:29:39;;;;;;;0.50;0.50;;;10.20;99.90;;;-141.84;85.06;26685.19;5047820;28;20691;-59
2023/12/24 09:32:09;;;;;;;0.60;0.60;;;10.20;99.90;;;-141.84;84.51;24814.63;5048807;28;20876;-60
2023/12/24 09:34:37;;;;;;;0.40;0.40;;;10.30;99.90;;;-141.84;84.48;25712.13;5041400;28;20295;-57
2023/12/24 09:37:06;;;;;;;0.40;0.40;;;10.30;99.90;;;-141.84;83.71;23901.03;5045331;28;20709;-54
2023/12/24 09:39:34;;;;;;;0.60;0.50;;;10.30;99.90;;;-141.84;82.46;21537.66;5052844;28;20291;-57
2023/12/24 09:42:02;;;;;;;0.50;0.50;;;10.40;99.90;;;-141.84;83.47;22770.00;5053803;28;20266;-56
2023/12/24 09:44:31;;;;;;;0.40;0.40;;;10.50;99.90;;;-141.84;83.75;23636.53;5053311;28;20221;-57
2023/12/24 09:46:59;;;;;;;0.60;0.50;;;10.50;99.90;;;-141.84;83.01;22863.56;5054024;28;20229;-59
2023/12/24 09:49:29;;;;;;;0.50;0.50;;;10.40;99.90;;;-141.84;82.51;21891.47;5053436;28;20766;-59
2023/12/24 09:52:01;;;;;;;0.43;0.40;;;10.50;99.90;;;-141.84;82.51;21812.16;5049619;28;20248;-59
2023/12/24 09:54:29;;;;;;;0.40;0.40;;;10.50;99.90;;;-141.84;82.91;22039.91;5052987;28;20229;-59
2023/12/24 09:56:59;;;;;;;0.40;0.33;;;10.50;99.90;;;-141.84;82.37;21903.66;5053492;28;20338;-59
2023/12/24 09:59:27;;;;;;;0.43;0.43;;;10.60;99.90;;;-141.84;82.19;21224.56;5053544;28;20204;-60
2023/12/24 10:01:55;;;;;;;0.43;0.40;;;10.60;99.90;;;-141.84;82.01;21224.56;5053231;28;20600;-60
2023/12/24 10:04:24;;;;;;;0.30;0.30;;;10.60;99.90;;;-141.84;81.86;20937.91;5052961;28;20275;-60
2023/12/24 10:06:54;;;;;;;1.17;0.40;;;10.70;99.90;;;-141.84;81.07;20413.44;5052734;28;20233;-59
2023/12/24 10:09:25;;;;;;;0.67;0.43;;;10.70;99.90;;;-141.84;82.87;22072.44;5052280;28;20225;-59